createdAt,value
2023-04-28T00:00:15.451Z,19.40
2023-04-28T00:03:04.691Z,17.40
2023-04-28T00:05:33.952Z,17.80
2023-04-28T00:08:03.361Z,17.00
2023-04-28T00:10:32.274Z,17.40
2023-04-28T00:13:02.271Z,16.00
2023-04-28T00:15:31.647Z,16.40
2023-04-28T00:18:00.380Z,15.60
2023-04-28T00:20:29.510Z,15.40
2023-04-28T00:22:58.067Z,17.40
2023-04-28T00:25:26.968Z,15.60
2023-04-28T00:27:55.494Z,18.40
2023-04-28T00:30:26.277Z,20.60
2023-04-28T00:32:54.806Z,21.40
2023-04-28T00:35:24.237Z,24.40
2023-04-28T00:37:52.897Z,25.50
2023-04-28T00:40:22.274Z,18.20
2023-04-28T00:42:52.248Z,25.75
2023-04-28T00:45:21.322Z,29.00
2023-04-28T00:47:51.200Z,32.75
2023-04-28T00:50:20.340Z,36.25
2023-04-28T00:52:49.390Z,32.00
2023-04-28T00:55:18.624Z,6.00
2023-04-28T00:57:47.645Z,37.75
2023-04-28T01:00:18.004Z,39.25
2023-04-28T01:02:46.874Z,38.25
2023-04-28T01:05:18.298Z,30.25
2023-04-28T01:07:48.204Z,31.00
2023-04-28T01:10:17.283Z,31.50
2023-04-28T01:12:46.004Z,35.25
2023-04-28T01:15:18.341Z,37.50
2023-04-28T01:17:48.398Z,42.25
2023-04-28T01:20:18.777Z,36.50
2023-04-28T01:22:47.411Z,35.50
2023-04-28T01:25:17.907Z,33.50
2023-04-28T01:27:46.547Z,36.00
2023-04-28T01:30:15.962Z,36.75
2023-04-28T01:32:44.738Z,34.75
2023-04-28T01:35:13.597Z,35.75
2023-04-28T01:37:42.206Z,27.50
2023-04-28T01:40:12.091Z,37.25
2023-04-28T01:42:42.234Z,36.75
2023-04-28T01:45:12.186Z,34.25
2023-04-28T01:47:40.970Z,36.00
2023-04-28T01:50:10.346Z,36.00
2023-04-28T01:52:38.941Z,34.75
2023-04-28T01:55:08.549Z,34.00
2023-04-28T01:57:38.563Z,34.50
2023-04-28T02:00:10.757Z,30.25
2023-04-28T02:02:50.915Z,26.50
2023-04-28T02:05:19.965Z,27.25
2023-04-28T02:07:49.942Z,27.50
2023-04-28T02:10:18.878Z,31.25
2023-04-28T02:12:47.462Z,30.00
2023-04-28T02:15:17.870Z,26.50
2023-04-28T02:17:46.530Z,31.25
2023-04-28T02:20:17.983Z,31.50
2023-04-28T02:22:47.075Z,31.00
2023-04-28T02:25:16.055Z,30.25
2023-04-28T02:27:45.077Z,33.50
2023-04-28T02:30:14.652Z,33.50
2023-04-28T02:32:44.744Z,29.00
2023-04-28T02:35:13.854Z,32.25
2023-04-28T02:37:42.744Z,13.25
2023-04-28T02:40:12.493Z,31.00
2023-04-28T02:42:41.274Z,29.00
2023-04-28T02:45:10.915Z,35.75
2023-04-28T02:47:39.464Z,34.00
2023-04-28T02:50:10.987Z,34.00
2023-04-28T02:52:39.803Z,25.50
2023-04-28T02:55:09.539Z,31.25
2023-04-28T02:57:38.155Z,30.75
2023-04-28T03:00:08.801Z,33.75
2023-04-28T03:02:45.139Z,31.00
2023-04-28T03:05:15.820Z,27.50
2023-04-28T03:07:44.527Z,31.50
2023-04-28T03:10:14.012Z,31.25
2023-04-28T03:12:43.036Z,30.75
2023-04-28T03:15:14.176Z,29.75
2023-04-28T03:17:43.453Z,31.00
2023-04-28T03:20:13.608Z,33.50
2023-04-28T03:22:43.796Z,33.00
2023-04-28T03:25:12.686Z,29.75
2023-04-28T03:27:49.377Z,29.00
2023-04-28T03:30:18.432Z,29.25
2023-04-28T03:32:48.189Z,36.25
2023-04-28T03:35:18.037Z,38.50
2023-04-28T03:37:48.435Z,34.25
2023-04-28T03:40:18.252Z,25.25
2023-04-28T03:43:05.484Z,23.25
2023-04-28T03:45:39.229Z,23.75
2023-04-28T03:48:08.385Z,23.75
2023-04-28T03:50:37.310Z,28.00
2023-04-28T03:53:07.505Z,76.00
2023-04-28T03:55:36.586Z,51.00
2023-04-28T03:58:05.757Z,41.00
2023-04-28T04:00:36.768Z,29.00
2023-04-28T04:03:05.632Z,28.75
2023-04-28T04:05:34.740Z,31.00
2023-04-28T04:08:03.497Z,30.25
2023-04-28T04:10:34.344Z,35.00
2023-04-28T04:13:03.124Z,31.00
2023-04-28T04:15:32.208Z,57.50
2023-04-28T04:18:00.962Z,39.75
2023-04-28T04:20:37.735Z,35.25
2023-04-28T04:23:06.380Z,29.00
2023-04-28T04:25:37.020Z,27.50
2023-04-28T04:28:06.732Z,31.00
2023-04-28T04:30:35.801Z,31.75
2023-04-28T04:33:04.530Z,33.50
2023-04-28T04:35:33.662Z,63.67
2023-04-28T04:38:02.478Z,46.25
2023-04-28T04:40:32.391Z,38.00
2023-04-28T04:43:02.713Z,34.25
2023-04-28T04:45:39.510Z,37.50
2023-04-28T04:48:08.636Z,35.25
2023-04-28T04:50:37.652Z,39.00
2023-04-28T04:53:08.518Z,37.75
2023-04-28T04:55:40.369Z,41.25
2023-04-28T04:58:11.792Z,48.50
2023-04-28T05:01:10.347Z,39.50
2023-04-28T05:03:39.795Z,35.75
2023-04-28T05:06:09.234Z,33.00
2023-04-28T05:08:45.115Z,32.00
2023-04-28T05:11:14.029Z,26.75
2023-04-28T05:13:44.547Z,25.20
2023-04-28T05:16:15.062Z,23.25
2023-04-28T05:19:02.352Z,21.60
2023-04-28T05:21:31.577Z,25.25
2023-04-28T05:24:01.178Z,25.25
2023-04-28T05:26:31.422Z,28.25
2023-04-28T05:29:07.475Z,27.50
2023-04-28T05:31:36.487Z,23.60
2023-04-28T05:34:05.253Z,26.50
2023-04-28T05:36:34.513Z,26.80
2023-04-28T05:39:03.384Z,25.00
2023-04-28T05:41:32.234Z,26.00
2023-04-28T05:44:00.849Z,22.00
2023-04-28T05:46:31.506Z,18.60
2023-04-28T05:49:01.937Z,19.00
2023-04-28T05:51:35.404Z,11.20
2023-04-28T05:54:04.770Z,12.80
2023-04-28T05:56:40.110Z,12.20
2023-04-28T05:59:11.298Z,12.00
2023-04-28T06:01:41.656Z,12.60
2023-04-28T06:04:10.890Z,12.20
2023-04-28T06:06:40.393Z,10.80
2023-04-28T06:09:09.341Z,10.60
2023-04-28T06:11:38.296Z,14.00
2023-04-28T06:14:06.961Z,12.20
2023-04-28T06:16:35.956Z,14.20
2023-04-28T06:19:06.117Z,13.00
2023-04-28T06:21:35.086Z,11.40
2023-04-28T06:24:05.231Z,13.20
2023-04-28T06:26:34.337Z,14.60
2023-04-28T06:29:02.967Z,18.80
2023-04-28T06:31:32.427Z,13.60
2023-04-28T06:34:01.010Z,8.80
2023-04-28T06:36:33.121Z,9.80
2023-04-28T06:39:01.981Z,10.40
2023-04-28T06:41:31.841Z,12.20
2023-04-28T06:44:01.310Z,13.00
2023-04-28T06:46:34.429Z,17.20
2023-04-28T06:49:03.049Z,21.80
2023-04-28T06:51:33.560Z,9.00
2023-04-28T06:54:03.148Z,13.00
2023-04-28T06:56:32.133Z,11.20
2023-04-28T06:59:00.783Z,14.80
2023-04-28T07:01:29.882Z,16.80
2023-04-28T07:03:58.632Z,11.20
2023-04-28T07:06:29.860Z,11.00
2023-04-28T07:08:59.691Z,19.20
2023-04-28T07:11:28.661Z,11.20
2023-04-28T07:13:57.256Z,9.20
2023-04-28T07:16:26.972Z,10.40
2023-04-28T07:18:56.054Z,9.40
2023-04-28T07:21:25.022Z,3.00
2023-04-28T07:23:56.858Z,12.80
2023-04-28T07:26:27.247Z,12.40
2023-04-28T07:28:56.305Z,12.00
2023-04-28T07:31:26.187Z,10.00
2023-04-28T07:33:55.082Z,11.80
2023-04-28T07:36:24.229Z,11.00
2023-04-28T07:38:52.959Z,11.00
2023-04-28T07:41:21.844Z,10.20
2023-04-28T07:43:51.795Z,11.20
2023-04-28T07:46:20.838Z,13.80
2023-04-28T07:48:49.764Z,12.60
2023-04-28T07:51:18.855Z,8.00
2023-04-28T07:53:47.383Z,10.00
2023-04-28T07:56:16.364Z,12.20
2023-04-28T07:58:44.916Z,11.80
2023-04-28T08:01:15.389Z,11.00
2023-04-28T08:03:44.254Z,12.80
2023-04-28T08:06:14.001Z,12.20
2023-04-28T08:08:42.857Z,11.80
2023-04-28T08:11:11.714Z,10.40
2023-04-28T08:13:40.345Z,10.80
2023-04-28T08:16:09.344Z,10.60
2023-04-28T08:18:39.943Z,10.80
2023-04-28T08:21:09.071Z,12.60
2023-04-28T08:23:37.651Z,8.60
2023-04-28T08:26:06.934Z,12.40
2023-04-28T08:28:35.560Z,16.00
2023-04-28T08:31:05.479Z,12.00
2023-04-28T08:33:34.107Z,8.00
2023-04-28T08:36:05.096Z,19.00
2023-04-28T08:38:33.694Z,10.20
2023-04-28T08:41:05.415Z,9.40
2023-04-28T08:43:36.150Z,13.00
2023-04-28T08:46:08.276Z,11.00
2023-04-28T08:48:42.864Z,10.20
2023-04-28T08:51:17.440Z,10.00
2023-04-28T08:54:14.889Z,9.40
2023-04-28T08:56:40.110Z,11.40
2023-04-28T08:59:09.126Z,7.60
2023-04-28T09:01:38.962Z,9.00
2023-04-28T09:04:08.741Z,7.60
2023-04-28T09:06:40.631Z,8.00
2023-04-28T09:09:26.490Z,7.40
2023-04-28T09:11:58.361Z,8.40
2023-04-28T09:14:27.939Z,9.40
2023-04-28T09:16:57.122Z,9.20
2023-04-28T09:19:25.990Z,7.20
2023-04-28T09:21:58.242Z,7.60
2023-04-28T09:24:31.600Z,8.40
2023-04-28T09:27:02.367Z,9.00
2023-04-28T09:29:31.216Z,6.60
2023-04-28T09:32:15.567Z,7.20
2023-04-28T09:34:46.517Z,9.80
2023-04-28T09:37:21.864Z,9.60
2023-04-28T09:39:52.254Z,10.60
2023-04-28T09:42:33.622Z,6.20
2023-04-28T09:45:03.429Z,8.00
2023-04-28T09:47:39.258Z,8.80
2023-04-28T09:50:11.950Z,10.20
2023-04-28T09:52:44.373Z,9.80
2023-04-28T09:55:14.088Z,8.00
2023-04-28T09:57:47.923Z,10.00
2023-04-28T10:00:18.808Z,8.20
2023-04-28T10:02:48.271Z,13.20
2023-04-28T10:05:18.433Z,11.00
2023-04-28T10:07:49.212Z,9.00
2023-04-28T10:10:18.726Z,12.00
2023-04-28T10:12:48.153Z,13.20
2023-04-28T10:15:16.688Z,11.80
2023-04-28T10:17:47.364Z,10.80
2023-04-28T10:20:17.445Z,8.80
2023-04-28T10:23:01.674Z,10.60
2023-04-28T10:25:34.232Z,11.60
2023-04-28T10:28:08.474Z,10.40
2023-04-28T10:30:38.006Z,12.20
2023-04-28T10:33:27.330Z,10.40
2023-04-28T10:35:56.155Z,13.60
2023-04-28T10:38:26.313Z,13.20
2023-04-28T10:40:55.581Z,10.80
2023-04-28T10:43:39.736Z,10.40
2023-04-28T10:46:10.259Z,11.60
2023-04-28T10:48:56.358Z,9.00
2023-04-28T10:51:29.132Z,12.60
2023-04-28T10:54:15.502Z,9.80
2023-04-28T10:57:31.847Z,9.40
2023-04-28T11:00:28.655Z,11.40
2023-04-28T11:02:58.376Z,10.80
2023-04-28T11:05:28.466Z,10.60
2023-04-28T11:08:33.308Z,10.00
2023-04-28T11:11:17.706Z,9.80
2023-04-28T11:13:48.114Z,12.20
2023-04-28T11:16:19.349Z,15.00
2023-04-28T11:18:55.750Z,14.00
2023-04-28T11:21:26.202Z,15.00
2023-04-28T11:23:55.164Z,13.40
2023-04-28T11:26:25.838Z,11.80
2023-04-28T11:28:55.834Z,12.20
2023-04-28T11:31:26.640Z,8.20
2023-04-28T11:34:00.478Z,12.40
2023-04-28T11:36:32.978Z,12.20
2023-04-28T11:39:01.872Z,11.60
2023-04-28T11:41:32.762Z,14.00
2023-04-28T11:44:01.545Z,10.20
2023-04-28T11:46:30.844Z,15.40
2023-04-28T11:49:04.702Z,10.40
2023-04-28T11:51:38.872Z,11.40
2023-04-28T11:54:11.416Z,12.00
2023-04-28T11:56:44.885Z,10.00
2023-04-28T11:59:14.672Z,12.20
2023-04-28T12:01:48.624Z,13.60
2023-04-28T12:04:29.058Z,10.80
2023-04-28T12:07:05.748Z,15.20
2023-04-28T12:09:35.368Z,12.00
2023-04-28T12:12:07.712Z,11.20
2023-04-28T12:14:57.763Z,8.60
2023-04-28T12:17:27.799Z,11.60
2023-04-28T12:19:57.318Z,11.80
2023-04-28T12:22:26.661Z,10.20
2023-04-28T12:25:06.856Z,11.00
2023-04-28T12:27:39.557Z,14.60
2023-04-28T12:30:26.248Z,15.00
2023-04-28T12:32:56.072Z,11.20
2023-04-28T12:35:26.435Z,12.60
2023-04-28T12:37:57.728Z,12.40
2023-04-28T12:40:26.434Z,12.00
2023-04-28T12:42:56.757Z,8.20
2023-04-28T12:45:25.573Z,12.60
2023-04-28T12:47:55.011Z,11.20
2023-04-28T12:50:24.369Z,13.60
2023-04-28T12:52:53.443Z,10.80
2023-04-28T12:55:22.086Z,13.00
2023-04-28T12:57:51.694Z,14.60
2023-04-28T13:00:23.559Z,10.20
2023-04-28T13:02:53.138Z,14.20
2023-04-28T13:05:22.197Z,12.60
2023-04-28T13:07:51.153Z,12.20
2023-04-28T13:10:21.456Z,11.80
2023-04-28T13:12:50.713Z,12.00
2023-04-28T13:15:19.475Z,12.20
2023-04-28T13:17:50.673Z,11.00
2023-04-28T13:20:19.283Z,11.80
2023-04-28T13:22:48.155Z,11.40
2023-04-28T13:25:16.770Z,9.00
2023-04-28T13:27:46.126Z,10.60
2023-04-28T13:30:15.139Z,8.60
2023-04-28T13:32:44.099Z,10.60
2023-04-28T13:35:14.208Z,10.80
2023-04-28T13:37:46.087Z,12.60
2023-04-28T13:40:14.731Z,11.60
2023-04-28T13:42:43.929Z,11.80
2023-04-28T13:45:14.006Z,11.80
2023-04-28T13:47:44.642Z,11.40
2023-04-28T13:50:14.919Z,14.20
2023-04-28T13:52:43.837Z,15.60
2023-04-28T13:55:12.463Z,8.60
2023-04-28T13:57:41.367Z,10.80
2023-04-28T14:00:11.201Z,15.40
2023-04-28T14:02:41.509Z,14.00
2023-04-28T14:05:10.666Z,12.60
2023-04-28T14:07:41.150Z,11.40
2023-04-28T14:10:11.148Z,10.20
2023-04-28T14:12:40.242Z,11.60
2023-04-28T14:15:09.562Z,13.20
2023-04-28T14:17:38.762Z,15.00
2023-04-28T14:20:11.634Z,14.00
2023-04-28T14:22:42.114Z,13.00
2023-04-28T14:25:11.412Z,12.20
2023-04-28T14:27:40.477Z,11.80
2023-04-28T14:30:10.134Z,14.80
2023-04-28T14:32:40.083Z,12.00
2023-04-28T14:35:10.077Z,11.00
2023-04-28T14:37:39.341Z,11.60
2023-04-28T14:40:10.861Z,13.40
2023-04-28T14:42:39.881Z,16.40
2023-04-28T14:45:10.756Z,13.40
2023-04-28T14:47:41.366Z,14.20
2023-04-28T14:50:13.203Z,16.20
2023-04-28T14:52:42.956Z,15.40
2023-04-28T14:55:13.704Z,15.00
2023-04-28T14:57:42.786Z,8.80
2023-04-28T15:00:12.525Z,10.40
2023-04-28T15:02:41.582Z,10.20
2023-04-28T15:05:11.696Z,12.40
2023-04-28T15:07:40.961Z,14.40
2023-04-28T15:10:10.225Z,10.00
2023-04-28T15:12:40.504Z,9.80
2023-04-28T15:15:10.286Z,11.40
2023-04-28T15:17:39.278Z,12.20
2023-04-28T15:20:09.228Z,14.80
2023-04-28T15:22:38.600Z,15.00
2023-04-28T15:25:07.881Z,15.80
2023-04-28T15:27:36.805Z,14.40
2023-04-28T15:30:08.696Z,13.60
2023-04-28T15:32:38.258Z,16.40
2023-04-28T15:35:07.742Z,14.60
2023-04-28T15:37:44.528Z,10.20
2023-04-28T15:40:15.745Z,10.00
2023-04-28T15:42:49.412Z,15.00
2023-04-28T15:45:20.851Z,14.60
2023-04-28T15:47:51.299Z,8.00
2023-04-28T15:50:20.785Z,14.80
2023-04-28T15:52:51.302Z,11.80
2023-04-28T15:55:22.052Z,19.40
2023-04-28T15:57:52.391Z,14.40
2023-04-28T16:00:22.954Z,13.00
2023-04-28T16:02:52.339Z,14.20
2023-04-28T16:05:21.120Z,9.20
2023-04-28T16:07:50.074Z,13.80
2023-04-28T16:10:18.907Z,11.40
2023-04-28T16:12:47.965Z,13.40
2023-04-28T16:15:17.436Z,14.80
2023-04-28T16:17:49.082Z,15.40
2023-04-28T16:20:17.839Z,14.00
2023-04-28T16:22:46.940Z,14.60
2023-04-28T16:25:15.669Z,14.40
2023-04-28T16:27:44.611Z,13.80
2023-04-28T16:30:13.427Z,15.60
2023-04-28T16:32:42.648Z,18.00
2023-04-28T16:35:15.231Z,17.20
2023-04-28T16:37:44.663Z,20.20
2023-04-28T16:40:13.787Z,20.60
2023-04-28T16:42:43.599Z,20.20
2023-04-28T16:45:13.224Z,17.60
2023-04-28T16:47:43.757Z,18.60
2023-04-28T16:50:15.621Z,15.40
2023-04-28T16:52:45.019Z,15.40
2023-04-28T16:55:13.803Z,17.00
2023-04-28T16:57:42.976Z,17.80
2023-04-28T17:00:12.701Z,25.00
2023-04-28T17:02:41.967Z,22.00
2023-04-28T17:05:11.468Z,24.00
2023-04-28T17:07:42.003Z,31.50
2023-04-28T17:10:11.518Z,29.75
2023-04-28T17:12:40.898Z,29.25
2023-04-28T17:15:10.177Z,22.25
2023-04-28T17:17:39.104Z,22.50
2023-04-28T17:20:09.306Z,23.75
2023-04-28T17:22:38.199Z,21.20
2023-04-28T17:25:09.349Z,20.00
2023-04-28T17:27:38.186Z,23.25
2023-04-28T17:30:10.978Z,23.25
2023-04-28T17:32:40.103Z,21.50
2023-04-28T17:35:09.926Z,17.00
2023-04-28T17:37:38.902Z,38.25
2023-04-28T17:40:10.674Z,20.00
2023-04-28T17:42:39.556Z,24.00
2023-04-28T17:45:09.317Z,24.00
2023-04-28T17:47:38.253Z,24.50
2023-04-28T17:50:07.980Z,22.75
2023-04-28T17:52:36.844Z,43.50
2023-04-28T17:55:06.430Z,28.50
2023-04-28T17:57:36.798Z,27.50
2023-04-28T18:00:06.401Z,27.00
2023-04-28T18:02:40.867Z,29.50
2023-04-28T18:05:10.116Z,29.25
2023-04-28T18:07:40.199Z,27.25
2023-04-28T18:10:09.218Z,30.25
2023-04-28T18:12:39.530Z,33.25
2023-04-28T18:15:09.707Z,31.00
2023-04-28T18:17:38.873Z,29.50
2023-04-28T18:20:08.864Z,30.50
2023-04-28T18:22:37.778Z,30.75
2023-04-28T18:25:06.795Z,31.75
2023-04-28T18:27:35.849Z,26.75
2023-04-28T18:30:06.319Z,25.50
2023-04-28T18:32:35.319Z,31.00
2023-04-28T18:35:03.918Z,26.75
2023-04-28T18:37:32.855Z,24.25
2023-04-28T18:40:01.531Z,22.75
2023-04-28T18:42:32.707Z,26.75
2023-04-28T18:45:01.635Z,26.25
2023-04-28T18:47:32.067Z,22.50
2023-04-28T18:50:01.276Z,24.80
2023-04-28T18:52:30.225Z,22.40
2023-04-28T18:54:58.741Z,20.80
2023-04-28T18:57:28.097Z,19.00
2023-04-28T18:59:59.453Z,23.00
2023-04-28T19:02:28.488Z,19.50
2023-04-28T19:04:58.905Z,22.50
2023-04-28T19:07:28.366Z,21.25
2023-04-28T19:09:56.958Z,22.00
2023-04-28T19:12:26.071Z,15.20
2023-04-28T19:14:55.076Z,19.50
2023-04-28T19:17:24.216Z,17.80
2023-04-28T19:19:56.491Z,20.00
2023-04-28T19:22:34.957Z,18.40
2023-04-28T19:25:04.288Z,14.60
2023-04-28T19:27:36.378Z,20.25
2023-04-28T19:30:06.903Z,18.80
2023-04-28T19:32:36.391Z,18.60
2023-04-28T19:35:05.533Z,17.40
2023-04-28T19:37:36.333Z,16.00
2023-04-28T19:40:06.008Z,20.00
2023-04-28T19:42:35.880Z,16.00
2023-04-28T19:45:04.649Z,19.80
2023-04-28T19:47:34.824Z,23.75
2023-04-28T19:50:05.068Z,26.00
2023-04-28T19:52:35.326Z,18.20
2023-04-28T19:55:04.404Z,21.00
2023-04-28T19:57:33.390Z,18.20
2023-04-28T20:00:02.280Z,16.60
2023-04-28T20:02:37.058Z,18.40
2023-04-28T20:05:07.345Z,17.75
2023-04-28T20:07:39.961Z,19.80
2023-04-28T20:10:09.413Z,22.75
2023-04-28T20:12:38.986Z,22.00
2023-04-28T20:15:09.630Z,19.40
2023-04-28T20:17:38.717Z,19.25
2023-04-28T20:20:08.594Z,22.20
2023-04-28T20:22:38.938Z,23.25
2023-04-28T20:25:09.951Z,23.50
2023-04-28T20:27:38.860Z,21.60
2023-04-28T20:30:09.045Z,26.25
2023-04-28T20:32:38.073Z,21.60
2023-04-28T20:35:07.301Z,20.60
2023-04-28T20:37:36.731Z,18.20
2023-04-28T20:40:08.070Z,20.40
2023-04-28T20:42:36.882Z,18.00
2023-04-28T20:45:07.025Z,18.00
2023-04-28T20:47:36.718Z,18.40
2023-04-28T20:50:06.637Z,16.80
2023-04-28T20:52:35.598Z,19.20
2023-04-28T20:55:26.811Z,11.80
2023-04-28T20:57:55.950Z,13.00
2023-04-28T21:00:24.610Z,16.80
2023-04-28T21:02:53.575Z,17.00
2023-04-28T21:05:23.871Z,16.40
2023-04-28T21:07:52.672Z,17.20
2023-04-28T21:10:21.216Z,16.40
2023-04-28T21:12:51.576Z,18.40
2023-04-28T21:15:20.484Z,18.20
2023-04-28T21:17:49.474Z,15.60
2023-04-28T21:20:18.017Z,8.20
2023-04-28T21:22:46.967Z,14.20
2023-04-28T21:25:15.568Z,13.80
2023-04-28T21:27:44.654Z,14.00
2023-04-28T21:30:14.869Z,11.60
2023-04-28T21:32:44.527Z,13.60
2023-04-28T21:35:13.722Z,9.20
2023-04-28T21:37:42.905Z,13.00
2023-04-28T21:40:11.919Z,9.40
2023-04-28T21:42:40.911Z,10.40
2023-04-28T21:45:11.045Z,10.60
2023-04-28T21:47:43.474Z,11.80
2023-04-28T21:50:12.600Z,15.80
2023-04-28T21:52:41.477Z,12.80
2023-04-28T21:55:10.776Z,10.00
2023-04-28T21:57:39.697Z,14.00
2023-04-28T22:00:10.784Z,11.00
2023-04-28T22:02:44.270Z,12.40
2023-04-28T22:05:13.170Z,13.60
2023-04-28T22:07:42.204Z,13.80
2023-04-28T22:10:13.171Z,16.20
2023-04-28T22:12:42.244Z,17.80
2023-04-28T22:15:11.951Z,15.40
2023-04-28T22:17:40.952Z,16.20
2023-04-28T22:20:11.935Z,15.00
2023-04-28T22:22:41.741Z,18.20
2023-04-28T22:25:10.852Z,18.60
2023-04-28T22:27:40.037Z,18.20
2023-04-28T22:30:09.790Z,19.60
2023-04-28T22:32:38.684Z,16.80
2023-04-28T22:35:08.583Z,19.40
2023-04-28T22:37:39.322Z,16.60
2023-04-28T22:40:10.198Z,14.20
2023-04-28T22:42:39.847Z,14.40
2023-04-28T22:45:10.263Z,13.60
2023-04-28T22:47:41.835Z,6.00
2023-04-28T22:50:11.456Z,15.60
2023-04-28T22:52:42.709Z,18.80
2023-04-28T22:55:12.438Z,15.60
2023-04-28T22:57:41.315Z,15.40
2023-04-28T23:00:10.922Z,17.80
2023-04-28T23:02:39.933Z,13.20
2023-04-28T23:05:09.241Z,16.60
2023-04-28T23:07:38.104Z,8.00
2023-04-28T23:10:09.856Z,15.40
2023-04-28T23:12:38.834Z,12.00
2023-04-28T23:15:08.896Z,9.60
2023-04-28T23:17:38.123Z,13.60
2023-04-28T23:20:07.891Z,15.40
2023-04-28T23:22:36.770Z,14.80
2023-04-28T23:25:07.534Z,12.60
2023-04-28T23:27:36.444Z,13.00
2023-04-28T23:30:05.578Z,18.40
2023-04-28T23:32:34.496Z,17.00
2023-04-28T23:35:03.093Z,15.40
2023-04-28T23:37:32.237Z,12.80
2023-04-28T23:40:00.870Z,14.40
2023-04-28T23:42:31.335Z,16.60
2023-04-28T23:45:01.552Z,16.20
2023-04-28T23:47:31.572Z,13.40
2023-04-28T23:50:00.208Z,11.60
2023-04-28T23:52:29.177Z,14.80
2023-04-28T23:54:57.857Z,15.80
2023-04-28T23:57:26.949Z,15.80
2023-04-28T23:59:56.940Z,16.20
